Archival Weather

Chicago O'Hare International

Chicago, Illinois (KORD)

Report from: Wednesday, August 23, 2023 10:51 PM CDT
Current time: Monday, July 22, 2024 5:24 AM CDT

Current weather – Weather history – Daily summaries
Weather forecast

Temperature31.1°C (88.0°F)
Heat index40.3°C (104.6°F)
Dew point26.7°C (80.1°F)
Winds 13 kts (6.7 m/s, 15 mph) West-Southwest (240°)
Wind gusts 24 kts (12.3 m/s, 27.6 mph)
Visibility10 mi. (16.1 km)
Clouds Sky clear
Altimeter29.85 in.Hg (1011 mB)
Relative humidity78 %
Density altitude2,412 ft. (735 m)
Sea-level pressure101.0 kPa (1010 mB, 29.83 in.Hg)
Remarks Automated weather observing station with precipitation discriminator
Flight conditions Visual Meteorological Conditions
Raw dataKORD 240351Z 24013G24KT 10SM CLR 31/27 A2985 RMK AO2 SLP101 T03110267
An error has occurred. This application may no longer respond until reloaded. Reload 🗙